KONZ

Grosse Ile Municipal Airport

Detroit/Grosse Ile, Michigan, USA
METAR KONZ 191055Z AUTO 05005KT 5SM BR OVC009 18/17 A3003 RMK AO2 T01830170
Observed Flight Rules
Sep-19 @ 10:55 UTC (9 minutes ago) Instrument Flight Rules
Wind Visibility Clouds Conditions
50° at 5 knots 5 miles
  • Overcast at 900' AGL
  • Mist
Temperatures Readings
Current 18°C / 64°F
Dewpoint 17°C / 63°F
Humidity 94%
Altimeter 30.03" Hg
Pressure 1017 hPa
Elevation 180
METAR KONZ 191055Z AUTO 05005KT 5SM BR OVC009 18/17 A3003 RMK AO2 T01830170
Observed Flight Rules
Sep-19 @ 10:55 UTC
(9 minutes ago)
IFR
Wind Visibility
50° at 5 knots 5 miles
Clouds
  • Overcast at 900' AGL
Conditions
  • Mist
Temperature Dewpoint
18°C / 64°F 17°C / 63°F
Humidity Altimeter Pressure
94% 30.03" Hg 1017 hPa